sensor_id;sensor_type;location;lat;lon;timestamp;P1;durP1;ratioP1;P2;durP2;ratioP2
64550;SDS011;50945;44.472;-123.352;2022-09-09T00:14:42;3.75;;;0.77;;
64550;SDS011;50945;44.472;-123.352;2022-09-09T00:17:56;3.08;;;0.85;;
64550;SDS011;50945;44.472;-123.352;2022-09-09T00:28:41;2.65;;;0.60;;
64550;SDS011;50945;44.472;-123.352;2022-09-09T00:31:45;2.80;;;0.60;;
64550;SDS011;50945;44.472;-123.352;2022-09-09T00:34:13;2.58;;;1.10;;
64550;SDS011;50945;44.472;-123.352;2022-09-09T00:36:49;3.05;;;1.13;;
64550;SDS011;50945;44.472;-123.352;2022-09-09T00:39:39;3.03;;;0.70;;
64550;SDS011;50945;44.472;-123.352;2022-09-09T00:45:07;7.03;;;1.02;;
64550;SDS011;50945;44.472;-123.352;2022-09-09T00:47:49;4.35;;;0.70;;
64550;SDS011;50945;44.472;-123.352;2022-09-09T00:55:53;6.03;;;0.85;;
64550;SDS011;50945;44.472;-123.352;2022-09-09T00:58:22;1.58;;;0.90;;
64550;SDS011;50945;44.472;-123.352;2022-09-09T01:01:21;4.25;;;0.70;;
64550;SDS011;50945;44.472;-123.352;2022-09-09T01:03:54;4.85;;;1.08;;
64550;SDS011;50945;44.472;-123.352;2022-09-09T01:09:07;2.92;;;0.85;;
64550;SDS011;50945;44.472;-123.352;2022-09-09T01:11:41;1.45;;;0.57;;
64550;SDS011;50945;44.472;-123.352;2022-09-09T01:17:10;1.17;;;0.52;;
64550;SDS011;50945;44.472;-123.352;2022-09-09T01:24:52;4.75;;;1.10;;
64550;SDS011;50945;44.472;-123.352;2022-09-09T01:27:39;5.30;;;0.70;;
64550;SDS011;50945;44.472;-123.352;2022-09-09T01:30:10;5.03;;;0.70;;
64550;SDS011;50945;44.472;-123.352;2022-09-09T01:32:48;1.40;;;0.85;;
64550;SDS011;50945;44.472;-123.352;2022-09-09T01:38:02;1.83;;;0.55;;
64550;SDS011;50945;44.472;-123.352;2022-09-09T01:40:29;2.20;;;0.57;;
64550;SDS011;50945;44.472;-123.352;2022-09-09T01:42:55;2.28;;;0.75;;
64550;SDS011;50945;44.472;-123.352;2022-09-09T01:45:22;1.90;;;0.47;;
64550;SDS011;50945;44.472;-123.352;2022-09-09T01:47:50;3.85;;;1.02;;
64550;SDS011;50945;44.472;-123.352;2022-09-09T01:50:21;4.75;;;0.70;;
64550;SDS011;50945;44.472;-123.352;2022-09-09T01:52:50;3.45;;;0.80;;
64550;SDS011;50945;44.472;-123.352;2022-09-09T01:55:22;1.40;;;0.68;;
64550;SDS011;50945;44.472;-123.352;2022-09-09T01:58:01;5.22;;;0.85;;
64550;SDS011;50945;44.472;-123.352;2022-09-09T02:00:44;3.45;;;1.02;;
64550;SDS011;50945;44.472;-123.352;2022-09-09T02:03:28;1.95;;;0.47;;
64550;SDS011;50945;44.472;-123.352;2022-09-09T02:06:05;2.35;;;0.73;;
64550;SDS011;50945;44.472;-123.352;2022-09-09T02:08:49;3.60;;;0.88;;
64550;SDS011;50945;44.472;-123.352;2022-09-09T02:11:18;3.50;;;0.80;;
64550;SDS011;50945;44.472;-123.352;2022-09-09T02:13:48;4.55;;;0.98;;
64550;SDS011;50945;44.472;-123.352;2022-09-09T02:18:53;3.22;;;1.30;;
64550;SDS011;50945;44.472;-123.352;2022-09-09T02:21:22;5.28;;;1.20;;
64550;SDS011;50945;44.472;-123.352;2022-09-09T02:23:50;4.85;;;1.48;;
64550;SDS011;50945;44.472;-123.352;2022-09-09T02:26:19;2.33;;;1.25;;
64550;SDS011;50945;44.472;-123.352;2022-09-09T02:28:49;8.70;;;1.63;;
64550;SDS011;50945;44.472;-123.352;2022-09-09T02:31:17;6.30;;;1.70;;
64550;SDS011;50945;44.472;-123.352;2022-09-09T02:33:57;5.45;;;2.05;;
64550;SDS011;50945;44.472;-123.352;2022-09-09T02:36:27;6.43;;;1.45;;
64550;SDS011;50945;44.472;-123.352;2022-09-09T02:38:56;5.47;;;1.70;;
64550;SDS011;50945;44.472;-123.352;2022-09-09T02:41:24;2.00;;;1.20;;
64550;SDS011;50945;44.472;-123.352;2022-09-09T02:43:56;7.30;;;2.45;;
64550;SDS011;50945;44.472;-123.352;2022-09-09T02:52:26;4.32;;;1.63;;
64550;SDS011;50945;44.472;-123.352;2022-09-09T02:58:06;7.28;;;1.75;;
64550;SDS011;50945;44.472;-123.352;2022-09-09T03:00:36;9.75;;;2.10;;
64550;SDS011;50945;44.472;-123.352;2022-09-09T03:03:05;9.23;;;2.25;;
64550;SDS011;50945;44.472;-123.352;2022-09-09T03:05:34;4.75;;;2.08;;
64550;SDS011;50945;44.472;-123.352;2022-09-09T03:08:01;7.75;;;2.17;;
64550;SDS011;50945;44.472;-123.352;2022-09-09T03:10:28;5.22;;;1.85;;
64550;SDS011;50945;44.472;-123.352;2022-09-09T03:12:55;3.40;;;1.83;;
64550;SDS011;50945;44.472;-123.352;2022-09-09T03:15:22;6.47;;;1.90;;
64550;SDS011;50945;44.472;-123.352;2022-09-09T03:17:48;7.07;;;2.00;;
64550;SDS011;50945;44.472;-123.352;2022-09-09T03:20:15;5.80;;;2.08;;
64550;SDS011;50945;44.472;-123.352;2022-09-09T03:22:41;9.07;;;2.20;;
64550;SDS011;50945;44.472;-123.352;2022-09-09T03:25:10;4.45;;;1.50;;
64550;SDS011;50945;44.472;-123.352;2022-09-09T03:27:37;2.83;;;1.55;;
64550;SDS011;50945;44.472;-123.352;2022-09-09T03:30:04;11.05;;;1.95;;
64550;SDS011;50945;44.472;-123.352;2022-09-09T03:32:31;5.05;;;1.77;;
64550;SDS011;50945;44.472;-123.352;2022-09-09T03:34:57;6.97;;;2.10;;
64550;SDS011;50945;44.472;-123.352;2022-09-09T03:37:24;5.25;;;1.60;;
64550;SDS011;50945;44.472;-123.352;2022-09-09T03:39:50;5.25;;;1.80;;
64550;SDS011;50945;44.472;-123.352;2022-09-09T03:42:19;5.18;;;1.65;;
64550;SDS011;50945;44.472;-123.352;2022-09-09T03:44:47;4.28;;;1.70;;
64550;SDS011;50945;44.472;-123.352;2022-09-09T03:47:16;5.97;;;2.00;;
64550;SDS011;50945;44.472;-123.352;2022-09-09T03:49:43;6.28;;;1.83;;
64550;SDS011;50945;44.472;-123.352;2022-09-09T03:52:10;6.40;;;2.13;;
64550;SDS011;50945;44.472;-123.352;2022-09-09T03:54:37;6.78;;;1.95;;
64550;SDS011;50945;44.472;-123.352;2022-09-09T03:57:04;6.88;;;2.17;;
64550;SDS011;50945;44.472;-123.352;2022-09-09T03:59:31;3.17;;;1.75;;
64550;SDS011;50945;44.472;-123.352;2022-09-09T04:01:58;5.95;;;1.73;;
64550;SDS011;50945;44.472;-123.352;2022-09-09T04:04:25;4.60;;;1.55;;
64550;SDS011;50945;44.472;-123.352;2022-09-09T04:06:52;6.45;;;1.80;;
64550;SDS011;50945;44.472;-123.352;2022-09-09T04:09:19;4.55;;;1.40;;
64550;SDS011;50945;44.472;-123.352;2022-09-09T04:11:45;6.10;;;1.63;;
64550;SDS011;50945;44.472;-123.352;2022-09-09T04:14:12;7.00;;;1.73;;
64550;SDS011;50945;44.472;-123.352;2022-09-09T04:19:04;9.85;;;2.33;;
64550;SDS011;50945;44.472;-123.352;2022-09-09T04:21:33;5.57;;;1.60;;
64550;SDS011;50945;44.472;-123.352;2022-09-09T04:23:59;5.80;;;1.58;;
64550;SDS011;50945;44.472;-123.352;2022-09-09T04:28:51;2.40;;;1.27;;
64550;SDS011;50945;44.472;-123.352;2022-09-09T04:31:18;5.35;;;1.55;;
64550;SDS011;50945;44.472;-123.352;2022-09-09T04:33:49;2.38;;;1.17;;
64550;SDS011;50945;44.472;-123.352;2022-09-09T04:36:16;4.78;;;1.50;;
64550;SDS011;50945;44.472;-123.352;2022-09-09T04:38:44;5.65;;;1.50;;
64550;SDS011;50945;44.472;-123.352;2022-09-09T04:41:11;7.57;;;2.35;;
64550;SDS011;50945;44.472;-123.352;2022-09-09T04:43:38;4.82;;;1.40;;
64550;SDS011;50945;44.472;-123.352;2022-09-09T04:46:05;4.15;;;1.65;;
64550;SDS011;50945;44.472;-123.352;2022-09-09T04:48:32;6.35;;;1.73;;
64550;SDS011;50945;44.472;-123.352;2022-09-09T04:51:00;8.27;;;1.92;;
64550;SDS011;50945;44.472;-123.352;2022-09-09T04:53:29;5.90;;;1.73;;
64550;SDS011;50945;44.472;-123.352;2022-09-09T04:58:29;7.43;;;1.92;;
64550;SDS011;50945;44.472;-123.352;2022-09-09T05:01:17;6.28;;;1.45;;
64550;SDS011;50945;44.472;-123.352;2022-09-09T05:03:44;7.85;;;2.25;;
64550;SDS011;50945;44.472;-123.352;2022-09-09T05:06:15;5.35;;;2.08;;
64550;SDS011;50945;44.472;-123.352;2022-09-09T05:08:43;3.63;;;1.58;;
64550;SDS011;50945;44.472;-123.352;2022-09-09T05:11:17;4.93;;;1.75;;
64550;SDS011;50945;44.472;-123.352;2022-09-09T05:13:51;6.07;;;1.85;;
64550;SDS011;50945;44.472;-123.352;2022-09-09T05:16:19;8.88;;;1.85;;
64550;SDS011;50945;44.472;-123.352;2022-09-09T05:18:46;5.20;;;1.63;;
64550;SDS011;50945;44.472;-123.352;2022-09-09T05:21:14;8.48;;;2.25;;
64550;SDS011;50945;44.472;-123.352;2022-09-09T05:23:42;8.20;;;2.40;;
64550;SDS011;50945;44.472;-123.352;2022-09-09T05:26:13;7.68;;;1.88;;
64550;SDS011;50945;44.472;-123.352;2022-09-09T05:28:41;7.00;;;1.70;;
64550;SDS011;50945;44.472;-123.352;2022-09-09T05:31:09;5.63;;;1.98;;
64550;SDS011;50945;44.472;-123.352;2022-09-09T05:33:39;5.88;;;1.48;;
64550;SDS011;50945;44.472;-123.352;2022-09-09T05:36:09;5.82;;;1.80;;
64550;SDS011;50945;44.472;-123.352;2022-09-09T05:38:38;4.88;;;1.40;;
64550;SDS011;50945;44.472;-123.352;2022-09-09T05:41:06;4.82;;;1.60;;
64550;SDS011;50945;44.472;-123.352;2022-09-09T05:43:33;6.15;;;1.90;;
64550;SDS011;50945;44.472;-123.352;2022-09-09T05:48:38;4.40;;;1.60;;
64550;SDS011;50945;44.472;-123.352;2022-09-09T05:51:07;2.53;;;1.35;;
64550;SDS011;50945;44.472;-123.352;2022-09-09T05:53:38;5.40;;;1.77;;
64550;SDS011;50945;44.472;-123.352;2022-09-09T05:56:05;9.18;;;2.20;;
64550;SDS011;50945;44.472;-123.352;2022-09-09T05:58:36;4.13;;;1.50;;
64550;SDS011;50945;44.472;-123.352;2022-09-09T06:01:07;5.68;;;1.70;;
64550;SDS011;50945;44.472;-123.352;2022-09-09T06:03:36;3.92;;;1.50;;
64550;SDS011;50945;44.472;-123.352;2022-09-09T06:06:05;6.10;;;1.45;;
64550;SDS011;50945;44.472;-123.352;2022-09-09T06:08:34;2.50;;;1.27;;
64550;SDS011;50945;44.472;-123.352;2022-09-09T06:11:08;4.82;;;1.40;;
64550;SDS011;50945;44.472;-123.352;2022-09-09T06:13:40;4.78;;;1.30;;
64550;SDS011;50945;44.472;-123.352;2022-09-09T06:16:10;6.60;;;1.75;;
64550;SDS011;50945;44.472;-123.352;2022-09-09T06:18:38;4.90;;;1.20;;
64550;SDS011;50945;44.472;-123.352;2022-09-09T06:21:06;4.47;;;1.42;;
64550;SDS011;50945;44.472;-123.352;2022-09-09T06:23:34;6.25;;;1.80;;
64550;SDS011;50945;44.472;-123.352;2022-09-09T06:28:36;3.60;;;1.83;;
64550;SDS011;50945;44.472;-123.352;2022-09-09T06:31:03;5.35;;;1.38;;
64550;SDS011;50945;44.472;-123.352;2022-09-09T06:33:35;4.30;;;1.85;;
64550;SDS011;50945;44.472;-123.352;2022-09-09T06:36:13;4.65;;;1.58;;
64550;SDS011;50945;44.472;-123.352;2022-09-09T06:38:41;2.65;;;1.27;;
64550;SDS011;50945;44.472;-123.352;2022-09-09T06:41:08;4.97;;;1.63;;
64550;SDS011;50945;44.472;-123.352;2022-09-09T06:43:36;2.03;;;1.17;;
64550;SDS011;50945;44.472;-123.352;2022-09-09T06:46:05;5.93;;;1.58;;
64550;SDS011;50945;44.472;-123.352;2022-09-09T06:48:33;2.13;;;1.33;;
64550;SDS011;50945;44.472;-123.352;2022-09-09T06:51:00;3.50;;;1.45;;
64550;SDS011;50945;44.472;-123.352;2022-09-09T06:53:32;4.30;;;1.70;;
64550;SDS011;50945;44.472;-123.352;2022-09-09T06:56:01;1.58;;;1.10;;
64550;SDS011;50945;44.472;-123.352;2022-09-09T06:58:28;3.42;;;1.42;;
64550;SDS011;50945;44.472;-123.352;2022-09-09T07:01:05;2.03;;;0.98;;
64550;SDS011;50945;44.472;-123.352;2022-09-09T07:03:31;5.72;;;1.17;;
64550;SDS011;50945;44.472;-123.352;2022-09-09T07:05:59;3.40;;;1.90;;
64550;SDS011;50945;44.472;-123.352;2022-09-09T07:08:26;4.07;;;1.20;;
64550;SDS011;50945;44.472;-123.352;2022-09-09T07:10:53;2.60;;;1.30;;
64550;SDS011;50945;44.472;-123.352;2022-09-09T07:13:23;4.55;;;1.30;;
64550;SDS011;50945;44.472;-123.352;2022-09-09T07:15:54;4.80;;;1.50;;
64550;SDS011;50945;44.472;-123.352;2022-09-09T07:18:20;7.10;;;1.67;;
64550;SDS011;50945;44.472;-123.352;2022-09-09T07:20:55;3.38;;;1.33;;
64550;SDS011;50945;44.472;-123.352;2022-09-09T07:23:22;4.95;;;1.55;;
64550;SDS011;50945;44.472;-123.352;2022-09-09T07:25:49;3.80;;;1.20;;
64550;SDS011;50945;44.472;-123.352;2022-09-09T07:28:17;2.80;;;1.27;;
64550;SDS011;50945;44.472;-123.352;2022-09-09T07:30:43;6.88;;;1.33;;
64550;SDS011;50945;44.472;-123.352;2022-09-09T07:33:09;3.05;;;1.15;;
64550;SDS011;50945;44.472;-123.352;2022-09-09T07:35:35;1.83;;;0.80;;
64550;SDS011;50945;44.472;-123.352;2022-09-09T07:38:05;2.80;;;1.10;;
64550;SDS011;50945;44.472;-123.352;2022-09-09T07:40:32;4.78;;;1.30;;
64550;SDS011;50945;44.472;-123.352;2022-09-09T07:42:59;1.83;;;1.05;;
64550;SDS011;50945;44.472;-123.352;2022-09-09T07:45:26;3.65;;;1.10;;
64550;SDS011;50945;44.472;-123.352;2022-09-09T07:47:57;5.85;;;1.45;;
64550;SDS011;50945;44.472;-123.352;2022-09-09T07:50:24;6.47;;;1.90;;
64550;SDS011;50945;44.472;-123.352;2022-09-09T07:52:51;4.18;;;1.15;;
64550;SDS011;50945;44.472;-123.352;2022-09-09T07:55:19;2.88;;;1.20;;
64550;SDS011;50945;44.472;-123.352;2022-09-09T07:57:45;4.28;;;1.40;;
64550;SDS011;50945;44.472;-123.352;2022-09-09T08:00:12;4.57;;;1.33;;
64550;SDS011;50945;44.472;-123.352;2022-09-09T08:02:40;2.17;;;1.10;;
64550;SDS011;50945;44.472;-123.352;2022-09-09T08:07:33;2.97;;;0.95;;
64550;SDS011;50945;44.472;-123.352;2022-09-09T08:09:59;1.67;;;0.93;;
64550;SDS011;50945;44.472;-123.352;2022-09-09T08:12:25;8.43;;;1.55;;
64550;SDS011;50945;44.472;-123.352;2022-09-09T08:14:52;5.53;;;1.33;;
64550;SDS011;50945;44.472;-123.352;2022-09-09T08:19:45;1.55;;;0.90;;
64550;SDS011;50945;44.472;-123.352;2022-09-09T08:22:11;3.00;;;1.13;;
64550;SDS011;50945;44.472;-123.352;2022-09-09T08:24:37;5.20;;;1.52;;
64550;SDS011;50945;44.472;-123.352;2022-09-09T08:27:04;2.47;;;1.10;;
64550;SDS011;50945;44.472;-123.352;2022-09-09T08:29:31;1.60;;;0.80;;
64550;SDS011;50945;44.472;-123.352;2022-09-09T08:31:58;3.25;;;1.02;;
64550;SDS011;50945;44.472;-123.352;2022-09-09T08:34:25;4.03;;;2.05;;
64550;SDS011;50945;44.472;-123.352;2022-09-09T08:36:52;4.95;;;1.20;;
64550;SDS011;50945;44.472;-123.352;2022-09-09T08:39:20;2.03;;;0.82;;
64550;SDS011;50945;44.472;-123.352;2022-09-09T08:47:16;2.75;;;0.82;;
64550;SDS011;50945;44.472;-123.352;2022-09-09T08:58:19;3.38;;;1.02;;
64550;SDS011;50945;44.472;-123.352;2022-09-09T09:12:02;3.28;;;1.00;;
64550;SDS011;50945;44.472;-123.352;2022-09-09T09:19:41;2.13;;;0.90;;
64550;SDS011;50945;44.472;-123.352;2022-09-09T09:27:52;1.42;;;1.20;;
64550;SDS011;50945;44.472;-123.352;2022-09-09T09:30:39;2.50;;;0.95;;
64550;SDS011;50945;44.472;-123.352;2022-09-09T09:36:12;3.78;;;1.05;;
64550;SDS011;50945;44.472;-123.352;2022-09-09T09:38:51;1.45;;;1.00;;
64550;SDS011;50945;44.472;-123.352;2022-09-09T09:41:38;1.60;;;0.85;;
64550;SDS011;50945;44.472;-123.352;2022-09-09T09:44:18;3.60;;;1.10;;
64550;SDS011;50945;44.472;-123.352;2022-09-09T09:46:52;2.67;;;0.80;;
64550;SDS011;50945;44.472;-123.352;2022-09-09T09:49:31;2.03;;;0.85;;
64550;SDS011;50945;44.472;-123.352;2022-09-09T09:52:04;2.15;;;1.00;;
64550;SDS011;50945;44.472;-123.352;2022-09-09T09:54:33;3.55;;;1.00;;
64550;SDS011;50945;44.472;-123.352;2022-09-09T09:57:46;3.05;;;1.15;;
64550;SDS011;50945;44.472;-123.352;2022-09-09T10:02:50;2.83;;;1.00;;
64550;SDS011;50945;44.472;-123.352;2022-09-09T10:05:19;1.58;;;1.00;;
64550;SDS011;50945;44.472;-123.352;2022-09-09T10:10:42;1.80;;;0.68;;
64550;SDS011;50945;44.472;-123.352;2022-09-09T10:13:29;4.50;;;1.08;;
64550;SDS011;50945;44.472;-123.352;2022-09-09T10:16:25;4.38;;;1.00;;
64550;SDS011;50945;44.472;-123.352;2022-09-09T10:19:03;2.50;;;1.05;;
64550;SDS011;50945;44.472;-123.352;2022-09-09T10:30:05;4.50;;;1.38;;
64550;SDS011;50945;44.472;-123.352;2022-09-09T10:32:39;1.00;;;0.82;;
64550;SDS011;50945;44.472;-123.352;2022-09-09T10:37:49;3.03;;;1.10;;
64550;SDS011;50945;44.472;-123.352;2022-09-09T10:54:12;0.70;;;0.70;;
64550;SDS011;50945;44.472;-123.352;2022-09-09T10:56:49;2.70;;;1.10;;
64550;SDS011;50945;44.472;-123.352;2022-09-09T10:59:26;3.42;;;1.40;;
64550;SDS011;50945;44.472;-123.352;2022-09-09T11:02:03;2.28;;;1.10;;
64550;SDS011;50945;44.472;-123.352;2022-09-09T11:07:29;3.67;;;1.10;;
64550;SDS011;50945;44.472;-123.352;2022-09-09T11:10:59;1.67;;;1.15;;
64550;SDS011;50945;44.472;-123.352;2022-09-09T11:13:15;3.67;;;1.52;;
64550;SDS011;50945;44.472;-123.352;2022-09-09T11:16:15;2.60;;;1.20;;
64550;SDS011;50945;44.472;-123.352;2022-09-09T11:18:43;1.40;;;1.05;;
64550;SDS011;50945;44.472;-123.352;2022-09-09T11:21:15;3.05;;;1.73;;
64550;SDS011;50945;44.472;-123.352;2022-09-09T11:23:52;1.23;;;1.13;;
64550;SDS011;50945;44.472;-123.352;2022-09-09T11:26:31;2.17;;;1.45;;
64550;SDS011;50945;44.472;-123.352;2022-09-09T11:38:26;2.67;;;1.17;;
64550;SDS011;50945;44.472;-123.352;2022-09-09T11:40:57;3.10;;;1.38;;
64550;SDS011;50945;44.472;-123.352;2022-09-09T11:43:30;1.40;;;1.10;;
64550;SDS011;50945;44.472;-123.352;2022-09-09T11:46:03;3.72;;;1.50;;
64550;SDS011;50945;44.472;-123.352;2022-09-09T11:48:34;2.83;;;1.10;;
64550;SDS011;50945;44.472;-123.352;2022-09-09T11:51:09;3.60;;;1.77;;
64550;SDS011;50945;44.472;-123.352;2022-09-09T11:53:48;3.72;;;1.40;;
64550;SDS011;50945;44.472;-123.352;2022-09-09T11:56:26;3.13;;;1.20;;
64550;SDS011;50945;44.472;-123.352;2022-09-09T11:59:26;2.28;;;1.60;;
64550;SDS011;50945;44.472;-123.352;2022-09-09T12:06:59;2.78;;;1.30;;
64550;SDS011;50945;44.472;-123.352;2022-09-09T12:15:15;4.22;;;1.60;;
64550;SDS011;50945;44.472;-123.352;2022-09-09T12:17:44;3.03;;;1.60;;
64550;SDS011;50945;44.472;-123.352;2022-09-09T12:22:50;2.22;;;1.23;;
64550;SDS011;50945;44.472;-123.352;2022-09-09T12:25:42;3.42;;;1.50;;
64550;SDS011;50945;44.472;-123.352;2022-09-09T12:28:18;6.18;;;1.30;;
64550;SDS011;50945;44.472;-123.352;2022-09-09T12:33:32;2.90;;;1.17;;
64550;SDS011;50945;44.472;-123.352;2022-09-09T12:36:00;1.48;;;1.00;;
64550;SDS011;50945;44.472;-123.352;2022-09-09T12:38:34;2.83;;;1.20;;
64550;SDS011;50945;44.472;-123.352;2022-09-09T12:45:56;2.97;;;1.40;;
64550;SDS011;50945;44.472;-123.352;2022-09-09T12:48:44;3.63;;;1.35;;
64550;SDS011;50945;44.472;-123.352;2022-09-09T12:51:27;1.15;;;0.88;;
64550;SDS011;50945;44.472;-123.352;2022-09-09T12:53:56;4.53;;;1.48;;
64550;SDS011;50945;44.472;-123.352;2022-09-09T12:56:25;2.25;;;1.35;;
64550;SDS011;50945;44.472;-123.352;2022-09-09T12:58:54;3.47;;;1.60;;
64550;SDS011;50945;44.472;-123.352;2022-09-09T13:01:27;3.60;;;1.30;;
64550;SDS011;50945;44.472;-123.352;2022-09-09T13:03:58;4.10;;;1.67;;
64550;SDS011;50945;44.472;-123.352;2022-09-09T13:06:26;1.27;;;1.15;;
64550;SDS011;50945;44.472;-123.352;2022-09-09T13:08:55;3.78;;;1.60;;
64550;SDS011;50945;44.472;-123.352;2022-09-09T13:11:26;2.45;;;1.58;;
64550;SDS011;50945;44.472;-123.352;2022-09-09T13:14:01;2.85;;;1.58;;
64550;SDS011;50945;44.472;-123.352;2022-09-09T13:16:32;6.35;;;1.50;;
64550;SDS011;50945;44.472;-123.352;2022-09-09T13:19:21;1.55;;;1.20;;
64550;SDS011;50945;44.472;-123.352;2022-09-09T13:21:47;6.63;;;2.08;;
64550;SDS011;50945;44.472;-123.352;2022-09-09T13:30:25;1.55;;;1.38;;
64550;SDS011;50945;44.472;-123.352;2022-09-09T13:33:02;3.40;;;1.42;;
64550;SDS011;50945;44.472;-123.352;2022-09-09T13:35:31;5.22;;;1.40;;
64550;SDS011;50945;44.472;-123.352;2022-09-09T13:37:58;3.10;;;1.25;;
64550;SDS011;50945;44.472;-123.352;2022-09-09T13:40:33;4.72;;;1.98;;
64550;SDS011;50945;44.472;-123.352;2022-09-09T13:45:27;8.00;;;1.73;;
64550;SDS011;50945;44.472;-123.352;2022-09-09T13:47:54;8.05;;;1.60;;
64550;SDS011;50945;44.472;-123.352;2022-09-09T13:50:25;3.17;;;1.67;;
64550;SDS011;50945;44.472;-123.352;2022-09-09T13:52:55;4.72;;;1.60;;
64550;SDS011;50945;44.472;-123.352;2022-09-09T13:55:29;4.32;;;1.65;;
64550;SDS011;50945;44.472;-123.352;2022-09-09T13:57:56;3.80;;;1.98;;
64550;SDS011;50945;44.472;-123.352;2022-09-09T14:00:29;2.58;;;1.70;;
64550;SDS011;50945;44.472;-123.352;2022-09-09T14:02:57;2.45;;;1.63;;
64550;SDS011;50945;44.472;-123.352;2022-09-09T14:05:25;6.05;;;2.20;;
64550;SDS011;50945;44.472;-123.352;2022-09-09T14:07:52;4.05;;;1.75;;
64550;SDS011;50945;44.472;-123.352;2022-09-09T14:10:19;5.22;;;1.92;;
64550;SDS011;50945;44.472;-123.352;2022-09-09T14:12:46;3.72;;;1.80;;
64550;SDS011;50945;44.472;-123.352;2022-09-09T14:15:13;2.63;;;1.60;;
64550;SDS011;50945;44.472;-123.352;2022-09-09T14:17:39;4.25;;;2.38;;
64550;SDS011;50945;44.472;-123.352;2022-09-09T14:20:06;2.20;;;1.83;;
64550;SDS011;50945;44.472;-123.352;2022-09-09T14:22:33;3.70;;;1.60;;
64550;SDS011;50945;44.472;-123.352;2022-09-09T14:25:01;4.80;;;1.90;;
64550;SDS011;50945;44.472;-123.352;2022-09-09T14:27:27;5.20;;;2.20;;
64550;SDS011;50945;44.472;-123.352;2022-09-09T14:29:54;3.20;;;1.77;;
64550;SDS011;50945;44.472;-123.352;2022-09-09T14:32:20;5.93;;;2.60;;
64550;SDS011;50945;44.472;-123.352;2022-09-09T14:34:47;2.45;;;1.52;;
64550;SDS011;50945;44.472;-123.352;2022-09-09T14:37:17;3.47;;;1.60;;
64550;SDS011;50945;44.472;-123.352;2022-09-09T14:39:44;3.92;;;1.58;;
64550;SDS011;50945;44.472;-123.352;2022-09-09T14:42:12;5.38;;;1.73;;
64550;SDS011;50945;44.472;-123.352;2022-09-09T14:44:39;2.25;;;1.20;;
64550;SDS011;50945;44.472;-123.352;2022-09-09T14:47:06;3.53;;;1.30;;
64550;SDS011;50945;44.472;-123.352;2022-09-09T14:49:35;1.92;;;1.55;;
64550;SDS011;50945;44.472;-123.352;2022-09-09T14:54:28;1.60;;;1.50;;
64550;SDS011;50945;44.472;-123.352;2022-09-09T14:56:55;2.90;;;1.50;;
64550;SDS011;50945;44.472;-123.352;2022-09-09T15:01:47;3.63;;;1.88;;
64550;SDS011;50945;44.472;-123.352;2022-09-09T15:04:14;4.30;;;2.17;;
64550;SDS011;50945;44.472;-123.352;2022-09-09T15:06:42;4.40;;;2.38;;
64550;SDS011;50945;44.472;-123.352;2022-09-09T15:09:12;2.97;;;2.45;;
64550;SDS011;50945;44.472;-123.352;2022-09-09T15:11:38;3.47;;;2.40;;
64550;SDS011;50945;44.472;-123.352;2022-09-09T15:16:32;3.42;;;2.08;;
64550;SDS011;50945;44.472;-123.352;2022-09-09T15:18:59;2.33;;;2.13;;
64550;SDS011;50945;44.472;-123.352;2022-09-09T15:21:28;4.35;;;2.22;;
64550;SDS011;50945;44.472;-123.352;2022-09-09T15:23:56;4.88;;;2.13;;
64550;SDS011;50945;44.472;-123.352;2022-09-09T15:26:23;3.03;;;2.00;;
64550;SDS011;50945;44.472;-123.352;2022-09-09T15:28:50;5.45;;;2.20;;
64550;SDS011;50945;44.472;-123.352;2022-09-09T15:31:20;4.57;;;2.50;;
64550;SDS011;50945;44.472;-123.352;2022-09-09T15:33:52;3.08;;;2.40;;
64550;SDS011;50945;44.472;-123.352;2022-09-09T15:36:27;3.67;;;2.38;;
64550;SDS011;50945;44.472;-123.352;2022-09-09T15:38:55;6.47;;;2.40;;
64550;SDS011;50945;44.472;-123.352;2022-09-09T15:41:22;4.25;;;2.30;;
64550;SDS011;50945;44.472;-123.352;2022-09-09T15:43:49;3.70;;;2.38;;
64550;SDS011;50945;44.472;-123.352;2022-09-09T15:48:44;4.90;;;2.78;;
64550;SDS011;50945;44.472;-123.352;2022-09-09T15:51:10;6.15;;;3.03;;
64550;SDS011;50945;44.472;-123.352;2022-09-09T15:53:38;5.85;;;3.22;;
64550;SDS011;50945;44.472;-123.352;2022-09-09T15:58:34;8.50;;;3.78;;
64550;SDS011;50945;44.472;-123.352;2022-09-09T16:01:10;4.45;;;3.00;;
64550;SDS011;50945;44.472;-123.352;2022-09-09T16:03:42;3.47;;;2.47;;
64550;SDS011;50945;44.472;-123.352;2022-09-09T16:06:11;3.25;;;2.67;;
64550;SDS011;50945;44.472;-123.352;2022-09-09T16:08:39;4.70;;;2.72;;
64550;SDS011;50945;44.472;-123.352;2022-09-09T16:11:08;5.78;;;3.50;;
64550;SDS011;50945;44.472;-123.352;2022-09-09T16:13:35;5.90;;;3.85;;
64550;SDS011;50945;44.472;-123.352;2022-09-09T16:16:03;4.80;;;4.13;;
64550;SDS011;50945;44.472;-123.352;2022-09-09T16:18:36;5.18;;;4.03;;
64550;SDS011;50945;44.472;-123.352;2022-09-09T16:21:04;5.28;;;3.92;;
64550;SDS011;50945;44.472;-123.352;2022-09-09T16:23:31;7.95;;;5.72;;
64550;SDS011;50945;44.472;-123.352;2022-09-09T16:25:59;7.45;;;5.60;;
64550;SDS011;50945;44.472;-123.352;2022-09-09T16:28:25;10.40;;;7.15;;
64550;SDS011;50945;44.472;-123.352;2022-09-09T16:30:52;13.65;;;6.88;;
64550;SDS011;50945;44.472;-123.352;2022-09-09T16:33:19;9.35;;;6.95;;
64550;SDS011;50945;44.472;-123.352;2022-09-09T16:38:11;13.35;;;7.22;;
64550;SDS011;50945;44.472;-123.352;2022-09-09T16:40:37;11.85;;;8.35;;
64550;SDS011;50945;44.472;-123.352;2022-09-09T16:43:06;12.90;;;8.80;;
64550;SDS011;50945;44.472;-123.352;2022-09-09T16:45:34;15.73;;;8.95;;
64550;SDS011;50945;44.472;-123.352;2022-09-09T16:48:07;14.32;;;9.77;;
64550;SDS011;50945;44.472;-123.352;2022-09-09T16:50:33;14.93;;;9.65;;
64550;SDS011;50945;44.472;-123.352;2022-09-09T16:53:00;14.75;;;10.20;;
64550;SDS011;50945;44.472;-123.352;2022-09-09T16:55:37;14.63;;;10.20;;
64550;SDS011;50945;44.472;-123.352;2022-09-09T16:58:07;14.23;;;9.45;;
64550;SDS011;50945;44.472;-123.352;2022-09-09T17:00:36;16.30;;;10.70;;
64550;SDS011;50945;44.472;-123.352;2022-09-09T17:05:28;15.07;;;9.63;;
64550;SDS011;50945;44.472;-123.352;2022-09-09T17:10:23;18.15;;;12.95;;
64550;SDS011;50945;44.472;-123.352;2022-09-09T17:12:50;16.40;;;12.15;;
64550;SDS011;50945;44.472;-123.352;2022-09-09T17:17:43;17.27;;;11.18;;
64550;SDS011;50945;44.472;-123.352;2022-09-09T17:20:10;14.90;;;12.10;;
64550;SDS011;50945;44.472;-123.352;2022-09-09T17:22:37;15.07;;;11.85;;
64550;SDS011;50945;44.472;-123.352;2022-09-09T17:25:03;17.92;;;11.52;;
64550;SDS011;50945;44.472;-123.352;2022-09-09T17:27:31;18.38;;;12.57;;
64550;SDS011;50945;44.472;-123.352;2022-09-09T17:29:57;16.40;;;12.10;;
64550;SDS011;50945;44.472;-123.352;2022-09-09T17:32:23;18.67;;;12.15;;
64550;SDS011;50945;44.472;-123.352;2022-09-09T17:37:15;16.92;;;10.85;;
64550;SDS011;50945;44.472;-123.352;2022-09-09T17:39:42;16.02;;;11.48;;
64550;SDS011;50945;44.472;-123.352;2022-09-09T17:42:08;15.00;;;11.18;;
64550;SDS011;50945;44.472;-123.352;2022-09-09T17:44:35;13.90;;;11.85;;
64550;SDS011;50945;44.472;-123.352;2022-09-09T17:47:01;17.77;;;12.45;;
64550;SDS011;50945;44.472;-123.352;2022-09-09T17:49:29;17.58;;;12.68;;
64550;SDS011;50945;44.472;-123.352;2022-09-09T17:54:21;16.48;;;13.27;;
64550;SDS011;50945;44.472;-123.352;2022-09-09T17:56:48;19.38;;;10.77;;